Latest Weather Observations for Gatton

IDQ60901

Issued at 7:01 pm EST Saturday 30 July 2016 (issued every 10 minutes, with the page automatically refreshed every 10 minutes)

About weather observations | Map of Brisbane area stations | Latest observations for Brisbane area | Other Formats
Station Details ID: 040082 Name: UNIVERSITY OF QUEENSLAND GATTON Lat: -27.54 Lon: 152.34 Height: 89.0 m
Data from the previous 72 hours. | See also: Recent months at Gatton
Date/Time
EST
Temp
°C
App
Temp
°C
Dew
Point
°C
Rel
Hum
%
Delta-T
°C
Wind Press
QNH
hPa
Press
MSL
hPa
Rain since
9am
mm
Dir  Spd
km/h
Gust
km/h
Spd
kts
Gust
kts
30/07:00pm 10.5 9.0 3.1 60 3.2 CALM 0 0 0 0 - - 0.0
30/06:30pm 12.7 11.3 3.6 54 4.1 CALM 0 4 0 2 - - 0.0
30/06:00pm 14.2 11.9 2.8 46 5.1 ENE 4 7 2 4 - - 0.0
30/05:30pm 16.8 13.9 2.8 39 6.4 NE 7 9 4 5 - - 0.0
30/05:00pm 19.9 16.7 3.2 33 7.9 ENE 9 11 5 6 - - 0.0
30/04:30pm 21.7 20.0 1.9 27 9.2 CALM 0 0 0 0 - - 0.0
30/04:00pm 22.1 19.0 1.2 25 9.7 ENE 7 11 4 6 - - 0.0
30/03:30pm 22.0 19.7 0.5 24 9.8 W 2 9 1 5 - - 0.0
30/03:00pm 22.4 19.1 0.3 23 10.1 NE 7 11 4 6 - - 0.0
30/02:30pm 22.2 19.1 0.1 23 10.0 E 6 11 3 6 - - 0.0
30/02:00pm 22.3 19.4 1.3 25 9.7 E 6 11 3 6 - - 0.0
30/01:30pm 21.7 18.7 0.8 25 9.6 W 6 11 3 6 - - 0.0
30/01:00pm 21.7 19.1 0.8 25 9.6 NW 4 13 2 7 - - 0.0
30/12:30pm 20.9 17.9 1.7 28 8.9 NNW 7 13 4 7 - - 0.0
30/12:00pm 20.1 16.8 2.5 31 8.2 WSW 9 15 5 8 - - 0.0
30/11:30am 19.6 16.3 4.5 37 7.3 W 11 19 6 10 - - 0.0
30/11:00am 18.5 14.8 4.7 40 6.6 W 13 24 7 13 - - 0.0
30/10:30am 17.5 12.8 5.1 44 6.0 W 19 26 10 14 - - 0.0
30/10:00am 16.7 12.0 5.0 46 5.6 W 19 24 10 13 - - 0.0
30/09:30am 16.0 11.4 5.6 50 5.0 W 19 28 10 15 - - 0.0
30/09:00am 15.0 10.3 6.0 55 4.3 W 20 30 11 16 - - 0.0
30/08:30am 12.1 8.8 6.2 67 2.8 W 13 19 7 10 - - 0.0
30/08:00am 9.9 6.1 5.9 76 1.8 W 15 22 8 12 - - 0.0
30/07:30am 7.7 4.4 4.5 80 1.4 W 11 15 6 8 - - 0.0
30/07:00am 5.9 2.1 3.9 87 0.9 WSW 13 17 7 9 - - 0.0
30/06:30am 4.7 1.1 3.0 89 0.7 W 11 13 6 7 - - 0.0
30/06:00am 4.8 1.6 2.8 87 0.8 W 9 13 5 7 - - 0.0
30/05:30am 5.1 3.7 3.3 88 0.7 CALM 0 0 0 0 - - 0.0
30/05:00am 4.8 1.9 2.8 87 0.8 W 7 9 4 5 - - 0.0
30/04:30am 5.3 2.5 3.0 85 1.0 W 7 11 4 6 - - 0.0
30/04:00am 5.8 3.0 3.0 82 1.2 W 7 9 4 5 - - 0.0
30/03:30am 6.2 3.3 2.8 79 1.4 W 7 9 4 5 - - 0.0
30/03:00am 6.4 3.1 2.7 77 1.5 W 9 11 5 6 - - 0.0
30/02:30am 8.0 6.6 3.5 73 1.9 CALM 0 7 0 4 - - 0.0
30/02:00am 8.5 5.8 3.8 72 2.0 SW 7 11 4 6 - - 0.0
30/01:30am 8.9 5.8 3.5 69 2.3 SW 9 13 5 7 - - 0.0
30/01:00am 9.2 6.5 3.6 68 2.4 WSW 7 11 4 6 - - 0.0
30/12:30am 9.1 5.6 3.7 69 2.4 W 11 13 6 7 - - 0.0
30/12:00am 8.1 4.4 2.4 67 2.4 W 11 15 6 8 - - 0.0
 
Date/Time
EST
Temp
°C
App
Temp
°C
Dew
Point
°C
Rel
Hum
%
Delta-T
°C
Wind Press
QNH
hPa
Press
MSL
hPa
Rain since
9am
mm
Dir  Spd
km/h
Gust
km/h
Spd
kts
Gust
kts
29/11:30pm 9.1 5.5 2.9 65 2.7 W 11 15 6 8 - - 0.0
29/11:00pm 9.2 5.3 3.2 66 2.6 W 13 17 7 9 - - 0.0
29/10:30pm 8.2 5.3 2.4 67 2.4 W 7 11 4 6 - - 0.0
29/10:00pm 9.4 7.1 2.7 63 2.9 W 4 9 2 5 - - 0.0
29/09:30pm 9.5 6.7 3.0 64 2.8 WNW 7 13 4 7 - - 0.0
29/09:00pm 9.0 5.0 3.0 66 2.6 W 13 15 7 8 - - 0.0
29/08:30pm 9.1 7.5 2.4 63 2.8 CALM 0 0 0 0 - - 0.0
29/08:00pm 10.9 8.2 3.7 61 3.2 W 7 9 4 5 - - 0.0
29/07:30pm 11.6 9.5 3.9 59 3.5 W 4 9 2 5 - - 0.0
29/07:00pm 11.1 8.5 4.3 63 3.1 WSW 7 9 4 5 - - 0.0
29/06:30pm 12.0 9.8 5.4 64 3.1 NNW 6 7 3 4 - - 0.0
29/06:00pm 15.2 14.2 5.4 52 4.7 CALM 0 0 0 0 - - 0.0
29/05:30pm 17.5 16.9 7.3 51 5.1 CALM 0 0 0 0 - - 0.0
29/05:00pm 20.5 19.9 7.2 42 6.8 CALM 0 0 0 0 - - 0.0
29/04:30pm 21.8 19.8 7.2 39 7.5 NE 7 13 4 7 - - 0.0
29/04:00pm 22.6 20.7 5.1 32 8.7 NNE 4 9 2 5 - - 0.0
29/03:30pm 22.7 20.2 4.7 31 8.9 NNE 7 13 4 7 - - 0.0
29/03:00pm 22.9 20.9 4.4 30 9.1 N 4 13 2 7 - - 0.0
29/02:30pm 22.7 20.3 4.2 30 9.1 NNE 6 11 3 6 - - 0.0
29/02:00pm 22.4 20.0 4.5 31 8.8 NE 6 13 3 7 - - 0.0
29/01:30pm 22.3 19.7 4.4 31 8.8 NNE 7 11 4 6 - - 0.0
29/01:00pm 21.8 19.1 3.5 30 8.8 N 7 17 4 9 - - 0.0
29/12:30pm 21.2 18.5 3.9 32 8.4 W 7 15 4 8 - - 0.0
29/12:00pm 21.5 19.7 5.4 35 8.0 N 4 11 2 6 - - 0.0
29/11:30am 19.8 17.6 3.5 34 7.7 NE 4 11 2 6 - - 0.0
29/11:00am 18.7 17.0 5.9 43 6.3 N 4 9 2 5 - - 0.0
29/10:30am 17.2 14.9 5.8 47 5.6 NNE 7 11 4 6 - - 0.0
29/10:00am 15.3 13.8 5.2 51 4.8 W 2 9 1 5 - - 0.0
29/09:30am 13.1 10.3 5.3 59 3.7 WNW 9 13 5 7 - - 0.0
29/09:00am 11.0 7.8 5.1 67 2.7 W 11 15 6 8 - - 0.0
29/08:30am 9.3 6.1 4.9 74 2.0 W 11 13 6 7 - - 0.0
29/08:00am 7.1 4.0 3.5 78 1.5 W 9 13 5 7 - - 0.0
29/07:30am 5.0 2.1 2.4 83 1.1 WSW 7 13 4 7 - - 0.0
29/07:00am 3.9 0.8 1.4 84 1.0 W 7 9 4 5 - - 0.0
29/06:30am 4.3 1.5 2.0 85 0.9 W 6 9 3 5 - - 0.0
29/06:00am 4.4 1.0 1.9 84 1.0 W 9 13 5 7 - - 0.0
29/05:30am 4.8 1.5 2.3 84 1.0 WNW 9 13 5 7 - - 0.0
29/05:00am 4.7 1.3 2.1 83 1.0 WNW 9 13 5 7 - - 0.0
29/04:30am 4.4 1.6 2.3 86 0.8 WNW 6 9 3 5 - - 0.0
29/04:00am 4.5 1.1 2.0 84 1.0 W 9 11 5 6 - - 0.0
29/03:30am 4.7 1.0 2.1 83 1.0 W 11 15 6 8 - - 0.0
29/03:00am 5.0 0.9 2.4 83 1.1 W 13 17 7 9 - - 0.0
29/02:30am 5.0 1.3 2.4 83 1.1 W 11 15 6 8 - - 0.0
29/02:00am 4.9 1.2 2.3 83 1.1 W 11 15 6 8 - - 0.0
29/01:30am 5.8 2.2 2.8 81 1.2 W 11 15 6 8 - - 0.0
29/01:00am 6.0 2.3 2.6 79 1.4 WSW 11 17 6 9 - - 0.0
29/12:30am 6.4 2.4 2.9 78 1.5 W 13 17 7 9 - - 0.0
29/12:00am 6.7 3.5 2.8 76 1.6 W 9 13 5 7 - - 0.0
 
Date/Time
EST
Temp
°C
App
Temp
°C
Dew
Point
°C
Rel
Hum
%
Delta-T
°C
Wind Press
QNH
hPa
Press
MSL
hPa
Rain since
9am
mm
Dir  Spd
km/h
Gust
km/h
Spd
kts
Gust
kts
28/11:30pm 7.3 3.7 3.2 75 1.7 W 11 15 6 8 - - 0.0
28/11:00pm 7.5 3.9 3.2 74 1.8 W 11 13 6 7 - - 0.0
28/10:30pm 8.0 4.4 3.1 71 2.1 W 11 15 6 8 - - 0.0
28/10:00pm 8.8 5.4 3.8 71 2.2 W 11 15 6 8 - - 0.0
28/09:30pm 8.6 5.2 4.0 73 2.0 W 11 15 6 8 - - 0.0
28/09:00pm 9.0 5.6 4.2 72 2.1 W 11 15 6 8 - - 0.0
28/08:30pm 9.3 6.9 4.1 70 2.3 S 6 13 3 7 - - 0.0
28/08:00pm 10.7 7.4 4.4 65 2.8 W 11 15 6 8 - - 0.0
28/07:30pm 9.6 8.2 3.6 66 2.6 CALM 0 0 0 0 - - 0.0
28/07:00pm 10.6 9.4 4.5 66 2.7 CALM 0 0 0 0 - - 0.0
28/06:30pm 11.7 10.5 4.7 62 3.2 CALM 0 0 0 0 - - 0.0
28/06:00pm 13.1 11.8 4.0 54 4.1 CALM 0 0 0 0 - - 0.0
28/05:30pm 15.9 14.6 4.3 46 5.4 CALM 0 0 0 0 - - 0.0
28/05:00pm 19.0 17.7 4.0 37 7.2 CALM 0 0 0 0 - - 0.0
28/04:30pm 20.2 18.4 3.4 33 8.0 ENE 2 7 1 4 - - 0.0
28/04:00pm 20.7 18.5 3.4 32 8.3 NE 4 9 2 5 - - 0.0
28/03:30pm 20.8 18.2 3.1 31 8.4 NE 6 11 3 6 - - 0.0
28/03:00pm 20.5 17.0 3.3 32 8.2 NNE 11 17 6 9 - - 0.0
28/02:30pm 20.7 17.2 3.4 32 8.3 NNE 11 17 6 9 - - 0.0
28/02:00pm 20.7 17.2 3.4 32 8.3 NNE 11 22 6 12 - - 0.0
28/01:30pm 20.7 16.8 3.4 32 8.3 NE 13 19 7 10 - - 0.0
28/01:00pm 20.3 16.3 2.6 31 8.3 NE 13 17 7 9 - - 0.0
28/12:30pm 20.0 17.2 3.3 33 7.9 SE 7 15 4 8 - - 0.0
28/12:00pm 19.8 18.0 3.5 34 7.7 NNE 2 11 1 6 - - 0.0
28/11:30am 18.8 16.9 2.6 34 7.5 SSE 2 11 1 6 - - 0.0
28/11:00am 18.0 15.7 2.7 36 7.0 NW 4 11 2 6 - - 0.0
28/10:30am 17.2 14.8 2.4 37 6.7 WSW 4 9 2 5 - - 0.0
28/10:00am 16.1 12.6 3.5 43 5.8 W 11 15 6 8 - - 0.0
28/09:30am 14.9 11.2 4.6 50 4.8 W 13 17 7 9 - - 0.0
28/09:00am 13.4 9.3 4.6 55 4.1 WSW 15 19 8 10 - - 0.0
28/08:30am 11.7 8.1 4.9 63 3.1 W 13 19 7 10 - - 0.0
28/08:00am 9.8 6.5 4.4 69 2.4 WSW 11 19 6 10 - - 0.0
28/07:30am 7.6 4.5 3.8 77 1.6 WSW 9 15 5 8 - - 0.0
28/07:00am 5.8 2.1 2.6 80 1.3 WSW 11 15 6 8 - - 0.0
28/06:30am 5.6 1.9 2.1 78 1.4 WSW 11 13 6 7 - - 0.0
28/06:00am 5.8 2.1 2.4 79 1.4 WSW 11 17 6 9 - - 0.0
28/05:30am 6.3 2.3 2.6 77 1.5 W 13 17 7 9 - - 0.0
28/05:00am 6.8 2.8 2.9 76 1.6 W 13 19 7 10 - - 0.0
28/04:30am 6.7 2.7 2.8 76 1.6 W 13 19 7 10 - - 0.0
28/04:00am 6.2 2.2 2.7 78 1.5 W 13 17 7 9 - - 0.0
28/03:30am 6.4 3.2 2.9 78 1.5 WSW 9 15 5 8 - - 0.0
28/03:00am 6.2 2.5 2.3 76 1.6 WSW 11 13 6 7 - - 0.0
28/02:30am 7.2 3.9 2.5 72 2.0 WSW 9 11 5 6 - - 0.0
28/02:00am 8.2 5.0 2.9 69 2.3 WSW 9 13 5 7 - - 0.0
28/01:30am 9.0 5.4 3.0 66 2.6 W 11 15 6 8 - - 0.0
28/01:00am 9.7 6.9 3.4 65 2.7 W 7 11 4 6 - - 0.0
28/12:30am 10.2 7.4 3.3 62 3.0 WSW 7 11 4 6 - - 0.0
28/12:00am 9.6 5.6 3.1 64 2.8 SW 13 17 7 9 - - 0.0
 
Date/Time
EST
Temp
°C
App
Temp
°C
Dew
Point
°C
Rel
Hum
%
Delta-T
°C
Wind Press
QNH
hPa
Press
MSL
hPa
Rain since
9am
mm
Dir  Spd
km/h
Gust
km/h
Spd
kts
Gust
kts
27/11:30pm 9.4 6.3 3.4 66 2.6 WSW 9 15 5 8 - - 0.0
27/11:00pm 9.1 5.9 3.1 66 2.6 W 9 11 5 6 - - 0.0
27/10:30pm 9.4 7.2 3.2 65 2.7 W 4 15 2 8 - - 0.0
27/10:00pm 9.8 8.3 3.1 63 2.9 CALM 0 7 0 4 - - 0.0
27/09:30pm 11.9 10.5 3.7 57 3.7 CALM 0 0 0 0 - - 0.0
27/09:00pm 12.6 10.0 3.3 53 4.1 WSW 6 11 3 6 - - 0.0
27/08:30pm 13.6 10.5 3.7 51 4.5 WSW 9 17 5 9 - - 0.0
27/08:00pm 14.3 10.8 3.7 49 4.8 WSW 11 17 6 9 - - 0.0
27/07:30pm 15.7 11.4 3.5 44 5.6 WSW 15 20 8 11 - - 0.0

Latest Capital City Observations: Canberra | Sydney | Melbourne | Brisbane | Adelaide | Perth | Hobart | Darwin

Other Formats:

Comma delimited format used in spreadsheet applications
http://www.bom.gov.au/fwo/IDQ60901/IDQ60901.94562.axf

JavaScript Object Notation format (JSON) in row-major order
http://www.bom.gov.au/fwo/IDQ60901/IDQ60901.94562.json